createdAt,value
2017-12-27T00:02:20.861Z,1.55
2017-12-27T00:04:54.877Z,2.00
2017-12-27T00:07:28.749Z,1.92
2017-12-27T00:10:01.981Z,1.90
2017-12-27T00:12:37.133Z,2.08
2017-12-27T00:15:10.954Z,1.70
2017-12-27T00:17:44.300Z,1.52
2017-12-27T00:20:18.589Z,2.05
2017-12-27T00:22:51.769Z,1.77
2017-12-27T00:25:25.328Z,1.60
2017-12-27T00:27:58.468Z,1.60
2017-12-27T00:30:31.720Z,1.90
2017-12-27T00:32:59.905Z,1.60
2017-12-27T00:35:28.110Z,1.40
2017-12-27T00:37:56.297Z,1.40
2017-12-27T00:40:23.740Z,1.70
2017-12-27T00:42:51.172Z,1.50
2017-12-27T00:45:19.553Z,2.23
2017-12-27T00:47:47.012Z,2.27
2017-12-27T00:50:14.457Z,2.20
2017-12-27T00:52:41.875Z,1.80
2017-12-27T00:55:09.309Z,1.92
2017-12-27T00:57:36.726Z,2.37
2017-12-27T01:00:04.141Z,2.00
2017-12-27T01:02:31.545Z,1.77
2017-12-27T01:04:58.970Z,2.15
2017-12-27T01:07:26.454Z,1.70
2017-12-27T01:09:53.869Z,1.20
2017-12-27T01:12:21.277Z,2.80
2017-12-27T01:14:48.774Z,1.35
2017-12-27T01:17:16.232Z,1.85
2017-12-27T01:19:43.766Z,1.58
2017-12-27T01:22:11.938Z,1.92
2017-12-27T01:24:39.351Z,1.87
2017-12-27T01:27:06.752Z,1.70
2017-12-27T01:29:34.286Z,1.55
2017-12-27T01:32:01.703Z,2.00
2017-12-27T01:34:30.621Z,1.73
2017-12-27T01:36:58.845Z,1.70
2017-12-27T01:39:26.266Z,1.85
2017-12-27T01:41:53.679Z,1.60
2017-12-27T01:44:21.085Z,2.22
2017-12-27T01:46:48.513Z,1.95
2017-12-27T01:49:15.984Z,1.87
2017-12-27T01:51:43.397Z,1.80
2017-12-27T01:54:10.837Z,1.40
2017-12-27T01:56:38.249Z,2.37
2017-12-27T01:59:06.092Z,1.95
2017-12-27T02:01:33.530Z,2.12
2017-12-27T02:04:00.942Z,1.27
2017-12-27T02:06:28.376Z,1.45
2017-12-27T02:08:55.797Z,1.90
2017-12-27T02:11:23.206Z,2.50
2017-12-27T02:13:50.630Z,2.50
2017-12-27T02:16:18.046Z,2.00
2017-12-27T02:18:45.457Z,1.70
2017-12-27T02:21:12.878Z,2.30
2017-12-27T02:23:40.354Z,2.90
2017-12-27T02:26:07.769Z,2.00
2017-12-27T02:28:35.184Z,2.87
2017-12-27T02:31:02.590Z,2.58
2017-12-27T02:33:30.021Z,2.60
2017-12-27T02:35:57.453Z,2.50
2017-12-27T02:41:30.372Z,2.50
2017-12-27T02:43:57.785Z,2.05
2017-12-27T02:46:25.273Z,2.50
2017-12-27T02:48:52.689Z,2.08
2017-12-27T02:51:20.958Z,1.80
2017-12-27T02:53:48.378Z,2.15
2017-12-27T02:56:15.784Z,2.20
2017-12-27T02:58:43.204Z,2.28
2017-12-27T03:01:10.624Z,2.08
2017-12-27T03:03:38.029Z,1.58
2017-12-27T03:06:06.207Z,2.40
2017-12-27T03:08:34.401Z,2.12
2017-12-27T03:11:02.606Z,2.08
2017-12-27T03:13:30.069Z,2.10
2017-12-27T03:15:57.469Z,1.87
2017-12-27T03:18:24.909Z,2.22
2017-12-27T03:20:52.319Z,1.85
2017-12-27T03:23:19.753Z,2.05
2017-12-27T03:25:47.177Z,1.90
2017-12-27T03:28:14.601Z,3.25
2017-12-27T03:30:42.092Z,1.65
2017-12-27T03:33:09.523Z,1.70
2017-12-27T03:35:36.937Z,2.22
2017-12-27T03:38:04.353Z,1.80
2017-12-27T03:40:31.818Z,1.70
2017-12-27T03:42:59.961Z,1.52
2017-12-27T03:45:27.361Z,1.27
2017-12-27T03:47:55.545Z,1.60
2017-12-27T03:50:22.957Z,1.80
2017-12-27T03:52:50.384Z,1.83
2017-12-27T03:55:17.837Z,1.92
2017-12-27T03:57:50.969Z,2.20
2017-12-27T04:00:18.442Z,1.30
2017-12-27T04:02:45.888Z,1.60
2017-12-27T04:05:14.061Z,1.95
2017-12-27T04:07:42.277Z,2.10
2017-12-27T04:10:09.691Z,2.00
2017-12-27T04:12:37.126Z,2.00
2017-12-27T04:15:04.537Z,2.20
2017-12-27T04:17:32.055Z,2.12
2017-12-27T04:19:59.521Z,2.00
2017-12-27T04:22:27.001Z,1.85
2017-12-27T04:24:54.414Z,1.37
2017-12-27T04:27:21.837Z,1.20
2017-12-27T04:29:49.302Z,1.30
2017-12-27T04:32:16.765Z,1.50
2017-12-27T04:34:44.297Z,1.48
2017-12-27T04:37:11.710Z,1.30
2017-12-27T04:39:39.179Z,1.48
2017-12-27T04:42:06.637Z,1.35
2017-12-27T04:44:34.070Z,2.00
2017-12-27T04:47:01.483Z,2.00
2017-12-27T04:49:28.892Z,1.50
2017-12-27T04:51:56.412Z,1.67
2017-12-27T04:54:23.845Z,1.70
2017-12-27T04:56:51.259Z,1.83
2017-12-27T04:59:18.717Z,1.77
2017-12-27T05:01:46.131Z,1.50
2017-12-27T05:04:13.593Z,1.77
2017-12-27T05:06:41.028Z,1.65
2017-12-27T05:09:08.438Z,1.30
2017-12-27T05:11:35.845Z,2.08
2017-12-27T05:14:03.261Z,1.23
2017-12-27T05:16:30.688Z,1.55
2017-12-27T05:18:58.105Z,1.30
2017-12-27T05:21:25.524Z,1.25
2017-12-27T05:23:52.940Z,1.50
2017-12-27T05:26:20.354Z,1.70
2017-12-27T05:28:47.825Z,1.55
2017-12-27T05:31:16.021Z,1.95
2017-12-27T05:33:43.497Z,2.17
2017-12-27T05:36:10.901Z,2.15
2017-12-27T05:38:38.339Z,1.50
2017-12-27T05:41:05.736Z,1.20
2017-12-27T05:43:33.225Z,1.67
2017-12-27T05:46:01.410Z,1.25
2017-12-27T05:48:28.916Z,1.40
2017-12-27T05:50:56.341Z,1.62
2017-12-27T05:53:23.845Z,1.80
2017-12-27T05:55:51.260Z,1.58
2017-12-27T05:58:18.666Z,1.67
2017-12-27T06:00:46.878Z,1.20
2017-12-27T06:03:14.346Z,1.60
2017-12-27T06:05:41.818Z,1.85
2017-12-27T06:08:09.247Z,1.65
2017-12-27T06:10:36.663Z,1.50
2017-12-27T06:13:04.075Z,2.70
2017-12-27T06:15:31.500Z,1.55
2017-12-27T06:17:58.961Z,1.87
2017-12-27T06:20:26.406Z,2.10
2017-12-27T06:22:53.794Z,1.85
2017-12-27T06:25:21.261Z,1.80
2017-12-27T06:27:48.729Z,1.62
2017-12-27T06:30:16.146Z,1.60
2017-12-27T06:32:43.573Z,1.50
2017-12-27T06:35:11.033Z,1.67
2017-12-27T06:37:38.449Z,1.50
2017-12-27T06:40:05.858Z,1.17
2017-12-27T06:42:33.265Z,1.60
2017-12-27T06:45:00.682Z,1.50
2017-12-27T06:47:28.869Z,1.40
2017-12-27T06:49:57.073Z,1.70
2017-12-27T06:52:24.473Z,1.60
2017-12-27T06:54:51.926Z,1.83
2017-12-27T06:57:19.385Z,1.55
2017-12-27T06:59:46.863Z,1.50
2017-12-27T07:02:14.440Z,1.50
2017-12-27T07:04:41.909Z,1.33
2017-12-27T07:07:09.358Z,1.37
2017-12-27T07:09:36.828Z,1.57
2017-12-27T07:12:04.262Z,1.50
2017-12-27T07:14:31.664Z,1.33
2017-12-27T07:16:59.106Z,1.50
2017-12-27T07:19:26.618Z,1.40
2017-12-27T07:21:54.078Z,1.45
2017-12-27T07:24:21.540Z,1.37
2017-12-27T07:26:48.965Z,1.27
2017-12-27T07:29:16.489Z,1.40
2017-12-27T07:31:43.908Z,1.67
2017-12-27T07:34:11.342Z,1.40
2017-12-27T07:36:38.754Z,1.40
2017-12-27T07:39:06.925Z,1.50
2017-12-27T07:41:34.355Z,1.58
2017-12-27T07:44:01.807Z,1.50
2017-12-27T07:46:29.285Z,1.48
2017-12-27T07:48:56.693Z,2.70
2017-12-27T07:51:24.861Z,1.10
2017-12-27T07:53:52.299Z,1.50
2017-12-27T07:56:19.770Z,1.37
2017-12-27T07:58:47.189Z,1.10
2017-12-27T08:01:14.617Z,1.30
2017-12-27T08:03:42.076Z,1.60
2017-12-27T08:06:09.542Z,1.80
2017-12-27T08:08:36.949Z,1.83
2017-12-27T08:11:04.367Z,1.87
2017-12-27T08:13:31.941Z,2.13
2017-12-27T08:15:59.366Z,1.73
2017-12-27T08:18:26.788Z,2.00
2017-12-27T08:20:54.290Z,2.03
2017-12-27T08:23:21.681Z,2.90
2017-12-27T08:25:49.098Z,2.10
2017-12-27T08:28:16.569Z,2.20
2017-12-27T08:30:43.977Z,1.93
2017-12-27T08:33:11.458Z,2.20
2017-12-27T08:35:39.661Z,2.03
2017-12-27T08:38:07.826Z,2.20
2017-12-27T08:40:36.055Z,2.53
2017-12-27T08:43:03.467Z,2.40
2017-12-27T08:45:31.001Z,2.10
2017-12-27T08:47:58.414Z,2.47
2017-12-27T08:50:25.834Z,1.75
2017-12-27T08:52:53.298Z,1.75
2017-12-27T08:55:20.736Z,1.90
2017-12-27T08:57:48.237Z,1.70
2017-12-27T09:00:15.690Z,1.70
2017-12-27T09:02:43.278Z,1.92
2017-12-27T09:05:10.684Z,1.83
2017-12-27T09:07:38.118Z,1.90
2017-12-27T09:10:05.614Z,1.75
2017-12-27T09:12:33.005Z,2.00
2017-12-27T09:15:00.513Z,2.10
2017-12-27T09:17:27.948Z,1.85
2017-12-27T09:19:55.354Z,1.55
2017-12-27T09:22:22.824Z,2.20
2017-12-27T09:24:50.213Z,1.75
2017-12-27T09:27:17.654Z,2.00
2017-12-27T09:29:45.842Z,2.10
2017-12-27T09:32:13.265Z,1.60
2017-12-27T09:34:41.094Z,2.40
2017-12-27T09:37:08.501Z,2.07
2017-12-27T09:39:35.914Z,2.47
2017-12-27T09:42:03.320Z,2.13
2017-12-27T09:44:30.763Z,2.73
2017-12-27T09:46:58.227Z,2.40
2017-12-27T09:49:25.641Z,3.00
2017-12-27T09:51:53.061Z,3.07
2017-12-27T09:54:20.541Z,2.60
2017-12-27T09:56:47.949Z,2.60
2017-12-27T09:59:15.350Z,3.23
2017-12-27T10:01:43.538Z,3.00
2017-12-27T10:04:11.715Z,2.77
2017-12-27T10:06:39.879Z,2.53
2017-12-27T10:09:07.281Z,2.87
2017-12-27T10:11:34.771Z,2.80
2017-12-27T10:14:02.169Z,2.30
2017-12-27T10:16:29.709Z,3.00
2017-12-27T10:18:57.862Z,2.90
2017-12-27T10:21:26.037Z,2.60
2017-12-27T10:23:54.209Z,2.80
2017-12-27T10:26:21.733Z,2.90
2017-12-27T10:28:49.145Z,2.10
2017-12-27T10:31:16.545Z,3.00
2017-12-27T10:33:44.725Z,2.47
2017-12-27T10:36:12.167Z,2.90
2017-12-27T10:38:39.565Z,2.77
2017-12-27T10:41:06.989Z,2.83
2017-12-27T10:43:34.890Z,2.00
2017-12-27T10:46:02.300Z,2.20
2017-12-27T10:48:29.752Z,2.67
2017-12-27T10:50:57.182Z,2.13
2017-12-27T10:53:24.579Z,2.30
2017-12-27T10:55:52.776Z,2.73
2017-12-27T10:58:20.968Z,2.10
2017-12-27T11:00:48.455Z,2.03
2017-12-27T11:03:15.855Z,2.10
2017-12-27T11:05:43.259Z,2.57
2017-12-27T11:08:11.441Z,2.00
2017-12-27T11:10:39.625Z,2.40
2017-12-27T11:13:07.802Z,2.40
2017-12-27T11:15:35.976Z,2.17
2017-12-27T11:18:03.558Z,2.17
2017-12-27T11:20:31.005Z,2.70
2017-12-27T11:22:58.427Z,1.20
2017-12-27T11:25:25.929Z,1.70
2017-12-27T11:27:53.356Z,1.10
2017-12-27T11:30:20.775Z,1.10
2017-12-27T11:32:48.183Z,1.53
2017-12-27T11:35:16.373Z,1.10
2017-12-27T11:37:44.554Z,1.10
2017-12-27T11:40:11.967Z,1.20
2017-12-27T11:42:39.360Z,1.10
2017-12-27T11:45:06.770Z,1.70
2017-12-27T11:47:34.175Z,1.00
2017-12-27T11:50:01.594Z,1.33
2017-12-27T11:52:29.765Z,1.00
2017-12-27T11:54:57.979Z,1.17
2017-12-27T11:57:25.405Z,0.80
2017-12-27T11:59:52.820Z,1.30
2017-12-27T12:02:20.301Z,1.37
2017-12-27T12:04:47.701Z,1.30
2017-12-27T12:07:15.115Z,1.57
2017-12-27T12:09:42.524Z,1.17
2017-12-27T12:12:09.985Z,1.40
2017-12-27T12:14:37.397Z,1.10
2017-12-27T12:17:05.574Z,1.30
2017-12-27T12:19:32.994Z,1.40
2017-12-27T12:22:00.394Z,1.33
2017-12-27T12:24:27.793Z,1.53
2017-12-27T12:26:56.014Z,1.40
2017-12-27T12:29:23.416Z,1.20
2017-12-27T12:31:50.824Z,1.80
2017-12-27T12:34:18.987Z,1.57
2017-12-27T12:36:46.473Z,1.40
2017-12-27T12:39:14.684Z,1.23
2017-12-27T12:41:42.853Z,1.77
2017-12-27T12:44:11.027Z,1.07
2017-12-27T12:46:39.245Z,1.50
2017-12-27T12:49:07.424Z,1.30
2017-12-27T12:51:34.818Z,1.37
2017-12-27T12:54:02.224Z,1.30
2017-12-27T12:56:29.733Z,1.27
2017-12-27T12:58:57.139Z,0.97
2017-12-27T13:01:24.546Z,1.20
2017-12-27T13:03:52.718Z,1.17
2017-12-27T13:06:20.892Z,1.00
2017-12-27T13:08:48.305Z,1.00
2017-12-27T13:11:15.717Z,0.90
2017-12-27T13:13:43.122Z,1.00
2017-12-27T13:16:11.402Z,1.00
2017-12-27T13:18:39.577Z,1.10
2017-12-27T13:21:07.749Z,1.43
2017-12-27T13:23:35.265Z,1.30
2017-12-27T13:26:02.665Z,1.10
2017-12-27T13:28:30.108Z,1.20
2017-12-27T13:30:58.262Z,1.50
2017-12-27T13:33:26.428Z,1.10
2017-12-27T13:35:53.841Z,1.00
2017-12-27T13:38:21.249Z,0.90
2017-12-27T13:40:48.657Z,1.43
2017-12-27T13:43:16.854Z,1.40
2017-12-27T13:45:45.021Z,1.20
2017-12-27T13:48:13.186Z,1.50
2017-12-27T13:50:40.602Z,1.20
2017-12-27T13:53:08.000Z,1.30
2017-12-27T13:55:35.437Z,1.43
2017-12-27T13:58:03.598Z,1.10
2017-12-27T14:00:31.057Z,1.17
2017-12-27T14:02:58.468Z,1.07
2017-12-27T14:05:25.866Z,1.27
2017-12-27T14:07:53.274Z,1.43
2017-12-27T14:10:21.450Z,1.50
2017-12-27T14:12:48.962Z,1.30
2017-12-27T14:15:17.251Z,1.20
2017-12-27T14:17:44.649Z,1.77
2017-12-27T14:20:12.084Z,1.50
2017-12-27T14:22:39.494Z,1.50
2017-12-27T14:25:06.907Z,1.57
2017-12-27T14:27:35.135Z,1.50
2017-12-27T14:30:02.605Z,1.60
2017-12-27T14:32:29.998Z,1.27
2017-12-27T14:34:57.405Z,1.77
2017-12-27T14:37:24.809Z,1.50
2017-12-27T14:39:52.225Z,1.30
2017-12-27T14:42:20.398Z,1.20
2017-12-27T14:44:48.611Z,1.17
2017-12-27T14:47:16.086Z,1.30
2017-12-27T14:49:43.506Z,1.40
2017-12-27T14:52:10.928Z,1.60
2017-12-27T14:54:38.390Z,1.70
2017-12-27T14:57:06.605Z,1.53
2017-12-27T14:59:34.762Z,2.10
2017-12-27T15:02:02.921Z,1.90
2017-12-27T15:04:31.098Z,1.90
2017-12-27T15:06:59.261Z,2.10
2017-12-27T15:09:26.673Z,2.43
2017-12-27T15:11:54.073Z,2.80
2017-12-27T15:14:21.474Z,2.10
2017-12-27T15:16:49.644Z,2.43
2017-12-27T15:19:17.077Z,1.90
2017-12-27T15:21:44.489Z,2.03
2017-12-27T15:24:11.900Z,1.90
2017-12-27T15:26:39.319Z,2.70
2017-12-27T15:29:06.715Z,3.30
2017-12-27T15:31:34.884Z,6.53
2017-12-27T15:34:02.311Z,4.20
2017-12-27T15:36:29.721Z,6.70
2017-12-27T15:38:57.267Z,3.37
2017-12-27T15:41:24.661Z,2.90
2017-12-27T15:43:52.167Z,2.30
2017-12-27T15:46:21.381Z,2.90
2017-12-27T15:48:48.786Z,6.80
2017-12-27T15:51:16.198Z,5.20
2017-12-27T15:53:44.378Z,2.77
2017-12-27T15:56:12.561Z,2.70
2017-12-27T15:58:40.727Z,3.80
2017-12-27T16:01:08.139Z,3.80
2017-12-27T16:03:35.613Z,5.10
2017-12-27T16:06:03.786Z,3.53
2017-12-27T16:08:31.953Z,3.20
2017-12-27T16:11:00.126Z,2.70
2017-12-27T16:13:27.533Z,2.90
2017-12-27T16:15:55.023Z,2.60
2017-12-27T16:18:22.481Z,2.50
2017-12-27T16:20:49.887Z,2.93
2017-12-27T16:23:17.325Z,3.03
2017-12-27T16:25:44.753Z,3.10
2017-12-27T16:28:12.255Z,3.30
2017-12-27T16:30:39.678Z,3.90
2017-12-27T16:33:07.155Z,5.83
2017-12-27T16:35:34.678Z,4.40
2017-12-27T16:38:02.242Z,4.77
2017-12-27T16:40:29.709Z,3.97
2017-12-27T16:42:57.880Z,3.70
2017-12-27T16:45:25.384Z,3.17
2017-12-27T16:47:52.806Z,3.17
2017-12-27T16:50:21.014Z,3.07
2017-12-27T16:52:48.418Z,3.20
2017-12-27T16:55:15.822Z,2.90
2017-12-27T16:57:43.996Z,3.13
2017-12-27T17:00:11.411Z,3.50
2017-12-27T17:02:38.809Z,3.50
2017-12-27T17:05:06.213Z,3.83
2017-12-27T17:07:33.621Z,3.43
2017-12-27T17:10:01.057Z,3.60
2017-12-27T17:12:28.482Z,3.10
2017-12-27T17:14:55.873Z,3.77
2017-12-27T17:17:23.265Z,3.93
2017-12-27T17:19:51.433Z,4.40
2017-12-27T17:22:18.853Z,4.30
2017-12-27T17:24:46.317Z,4.20
2017-12-27T17:27:14.490Z,3.90
2017-12-27T17:29:42.701Z,4.30
2017-12-27T17:32:10.105Z,3.47
2017-12-27T17:34:37.517Z,3.77
2017-12-27T17:37:05.721Z,3.90
2017-12-27T17:39:33.877Z,3.60
2017-12-27T17:42:02.067Z,3.97
2017-12-27T17:44:29.456Z,3.37
2017-12-27T17:46:56.944Z,3.33
2017-12-27T17:49:25.082Z,3.70
2017-12-27T17:51:52.508Z,4.10
2017-12-27T17:54:19.901Z,3.70
2017-12-27T17:56:47.324Z,3.90
2017-12-27T17:59:14.908Z,3.90
2017-12-27T18:01:43.066Z,3.73
2017-12-27T18:04:11.235Z,3.60
2017-12-27T18:06:38.744Z,3.70
2017-12-27T18:09:06.888Z,3.80
2017-12-27T18:11:34.389Z,3.80
2017-12-27T18:14:01.857Z,3.77
2017-12-27T18:16:29.262Z,4.13
2017-12-27T18:18:56.666Z,4.27
2017-12-27T18:21:24.885Z,3.57
2017-12-27T18:23:52.293Z,3.93
2017-12-27T18:26:19.746Z,4.00
2017-12-27T18:28:47.202Z,5.10
2017-12-27T18:31:15.341Z,4.57
2017-12-27T18:33:42.770Z,5.30
2017-12-27T18:36:10.197Z,5.03
2017-12-27T18:38:37.579Z,5.17
2017-12-27T18:41:04.989Z,5.50
2017-12-27T18:43:32.417Z,4.83
2017-12-27T18:45:59.888Z,4.53
2017-12-27T18:48:27.302Z,5.07
2017-12-27T18:50:54.730Z,6.60
2017-12-27T18:53:22.902Z,5.43
2017-12-27T18:55:51.105Z,4.90
2017-12-27T18:58:18.496Z,5.87
2017-12-27T19:00:45.949Z,4.37
2017-12-27T19:03:14.097Z,4.40
2017-12-27T19:05:41.609Z,4.27
2017-12-27T19:08:09.480Z,4.43
2017-12-27T19:10:37.623Z,5.50
2017-12-27T19:13:05.034Z,5.30
2017-12-27T19:15:32.447Z,5.13
2017-12-27T19:17:59.849Z,4.80
2017-12-27T19:20:28.021Z,5.40
2017-12-27T19:22:55.433Z,5.27
2017-12-27T19:25:22.846Z,6.73
2017-12-27T19:27:50.374Z,6.40
2017-12-27T19:30:18.521Z,6.00
2017-12-27T19:32:47.465Z,6.20
2017-12-27T19:35:14.878Z,6.20
2017-12-27T19:37:42.289Z,6.27
2017-12-27T19:40:09.765Z,6.27
2017-12-27T19:42:37.900Z,6.33
2017-12-27T19:45:05.314Z,7.00
2017-12-27T19:47:32.712Z,7.60
2017-12-27T19:50:00.122Z,8.67
2017-12-27T19:52:28.330Z,7.90
2017-12-27T19:54:55.798Z,7.10
2017-12-27T19:57:23.292Z,6.30
2017-12-27T19:59:50.734Z,6.10
2017-12-27T20:02:18.161Z,8.10
2017-12-27T20:04:47.075Z,6.73
2017-12-27T20:07:14.580Z,7.57
2017-12-27T20:09:42.792Z,7.70
2017-12-27T20:12:10.253Z,8.20
2017-12-27T20:14:37.725Z,7.90
2017-12-27T20:17:05.129Z,6.83
2017-12-27T20:19:32.564Z,5.67
2017-12-27T20:21:59.964Z,6.40
2017-12-27T20:24:27.381Z,6.20
2017-12-27T20:26:55.584Z,5.97
2017-12-27T20:29:22.992Z,5.60
2017-12-27T20:31:50.393Z,5.53
2017-12-27T20:34:18.597Z,5.67
2017-12-27T20:36:46.003Z,6.10
2017-12-27T20:39:13.452Z,6.43
2017-12-27T20:41:40.928Z,6.50
2017-12-27T20:44:08.368Z,7.50
2017-12-27T20:46:36.561Z,7.40
2017-12-27T20:49:03.966Z,8.10
2017-12-27T20:51:31.465Z,7.80
2017-12-27T20:53:58.844Z,9.90
2017-12-27T20:56:27.016Z,11.50
2017-12-27T20:58:54.509Z,10.63
2017-12-27T21:01:22.698Z,10.97
2017-12-27T21:03:50.101Z,11.10
2017-12-27T21:06:17.510Z,9.60
2017-12-27T21:08:45.018Z,9.40
2017-12-27T21:11:12.577Z,8.63
2017-12-27T21:13:40.001Z,10.43
2017-12-27T21:16:07.409Z,9.40
2017-12-27T21:18:35.617Z,8.97
2017-12-27T21:21:03.038Z,9.20
2017-12-27T21:23:30.458Z,9.00
2017-12-27T21:25:57.918Z,7.70
2017-12-27T21:28:26.073Z,7.90
2017-12-27T21:30:53.569Z,7.73
2017-12-27T21:33:21.041Z,8.07
2017-12-27T21:35:48.531Z,8.10
2017-12-27T21:38:15.956Z,8.53
2017-12-27T21:40:43.353Z,8.93
2017-12-27T21:43:10.757Z,8.87
2017-12-27T21:45:38.272Z,8.57
2017-12-27T21:48:11.339Z,7.83
2017-12-27T21:50:38.767Z,8.23
2017-12-27T21:53:06.221Z,9.03
2017-12-27T21:55:33.698Z,8.00
2017-12-27T21:58:06.842Z,8.60
2017-12-27T22:00:39.998Z,9.40
2017-12-27T22:03:07.406Z,9.70
2017-12-27T22:05:34.825Z,9.33
2017-12-27T22:08:02.238Z,8.80
2017-12-27T22:10:29.641Z,9.70
2017-12-27T22:12:57.841Z,11.00
2017-12-27T22:15:26.018Z,11.00
2017-12-27T22:17:54.193Z,12.00
2017-12-27T22:20:27.987Z,12.07
2017-12-27T22:22:55.415Z,13.20
2017-12-27T22:25:22.826Z,12.40
2017-12-27T22:27:50.347Z,13.60
2017-12-27T22:30:17.825Z,13.77
2017-12-27T22:32:45.237Z,14.33
2017-12-27T22:35:12.650Z,13.43
2017-12-27T22:37:40.117Z,12.80
2017-12-27T22:40:07.589Z,11.43
2017-12-27T22:42:35.006Z,11.73
2017-12-27T22:45:02.525Z,11.70
2017-12-27T22:47:30.011Z,12.67
2017-12-27T22:49:57.470Z,11.00
2017-12-27T22:52:24.895Z,12.17
2017-12-27T22:54:52.367Z,12.50
2017-12-27T22:57:19.941Z,10.70
2017-12-27T22:59:48.122Z,10.40
2017-12-27T23:02:15.544Z,10.70
2017-12-27T23:04:43.104Z,10.30
2017-12-27T23:07:10.562Z,10.57
2017-12-27T23:09:38.033Z,10.67
2017-12-27T23:12:05.505Z,9.57
2017-12-27T23:14:32.965Z,10.83
2017-12-27T23:17:00.454Z,10.23
2017-12-27T23:19:27.877Z,10.83
2017-12-27T23:21:55.303Z,10.17
2017-12-27T23:24:22.706Z,10.97
2017-12-27T23:26:50.237Z,12.17
2017-12-27T23:29:17.677Z,11.03
2017-12-27T23:31:45.850Z,11.13
2017-12-27T23:34:14.041Z,11.50
2017-12-27T23:36:42.230Z,11.10
2017-12-27T23:39:10.419Z,11.00
2017-12-27T23:41:38.594Z,11.87
2017-12-27T23:44:05.998Z,11.00
2017-12-27T23:46:33.409Z,11.30
2017-12-27T23:49:00.827Z,11.00
2017-12-27T23:51:28.273Z,11.40
2017-12-27T23:53:56.457Z,11.40
2017-12-27T23:56:24.644Z,10.80
2017-12-27T23:58:52.837Z,11.97
